LHBP/BUD METAR and TAF weather

Enter ICAO airport designator
Station Type Date Time Source
LHBP METAR 2019/10/18 11:00 UTC NOAA

LHBP 181100Z 20005KT 120V280 9999 FEW038 20/12 Q1016 NOSIG


Station Type Date Time Source
LHBP Decoded METAR 2019/10/18 11:00 UTC NOAA

Budapest / Ferihegy, Hungary (LHBP) 47-26N 019-16E 185M
Oct 18, 2019 - 07:00 AM EDT / 2019.10.18 1100 UTC
Wind: from the SSW (200 degrees) at 6 MPH (5 KT) (direction variable):0
Visibility: greater than 7 mile(s):0
Sky conditions: mostly clear
Temperature: 68 F (20 C)
Dew Point: 53 F (12 C)
Relative Humidity: 59%
Pressure (altimeter): 30.00 in. Hg (1016 hPa)
ob: LHBP 181100Z 20005KT 120V280 9999 FEW038 20/12 Q1016 NOSIG
cycle: 11

Station Type Date Time Source
LHBP TAF 2019/10/18 06:29 UTC NOAA

TAF LHBP 180515Z 1806/1906 VRB03KT CAVOK
TEMPO 1811/1817 16007KT

Example: see airport list